createdAt,value
2022-12-23T00:02:25.007Z,9.60
2022-12-23T00:06:26.907Z,9.50
2022-12-23T00:10:28.459Z,9.50
2022-12-23T00:14:48.850Z,9.50
2022-12-23T00:18:50.426Z,9.50
2022-12-23T00:23:07.422Z,9.40
2022-12-23T00:27:09.025Z,9.40
2022-12-23T00:31:11.249Z,9.40
2022-12-23T00:35:12.986Z,9.40
2022-12-23T00:39:33.051Z,9.40
2022-12-23T00:43:34.614Z,9.40
2022-12-23T00:47:54.597Z,9.40
2022-12-23T00:51:56.172Z,9.40
2022-12-23T00:55:57.751Z,9.40
2022-12-23T00:59:59.326Z,9.40
2022-12-23T01:04:19.245Z,9.40
2022-12-23T01:08:20.823Z,9.50
2022-12-23T01:12:22.489Z,9.50
2022-12-23T01:16:24.081Z,9.50
2022-12-23T01:20:25.693Z,9.50
2022-12-23T01:24:28.316Z,9.50
2022-12-23T01:28:30.733Z,9.60
2022-12-23T01:32:32.323Z,9.60
2022-12-23T01:36:33.906Z,9.60
2022-12-23T01:40:36.312Z,9.60
2022-12-23T01:44:56.149Z,9.60
2022-12-23T01:48:57.785Z,9.70
2022-12-23T01:53:08.016Z,9.70
2022-12-23T01:57:10.816Z,9.80
2022-12-23T02:01:31.880Z,9.80
2022-12-23T02:05:34.197Z,9.80
2022-12-23T02:09:37.237Z,9.80
2022-12-23T02:13:38.778Z,9.90
2022-12-23T02:17:47.077Z,9.90
2022-12-23T02:22:01.478Z,9.80
2022-12-23T02:26:06.227Z,9.90
2022-12-23T02:30:20.024Z,9.90
2022-12-23T02:34:30.080Z,10.00
2022-12-23T02:38:31.607Z,10.00
2022-12-23T02:42:59.698Z,9.90
2022-12-23T02:47:08.501Z,9.90
2022-12-23T02:51:10.828Z,9.90
2022-12-23T02:55:15.126Z,9.80
2022-12-23T02:59:18.525Z,9.70
2022-12-23T03:03:22.073Z,9.70
2022-12-23T03:07:30.529Z,9.80
2022-12-23T03:11:41.299Z,9.80
2022-12-23T03:15:57.220Z,9.70
2022-12-23T03:20:03.012Z,9.80
2022-12-23T03:24:13.638Z,9.80
2022-12-23T03:28:23.831Z,9.80
2022-12-23T03:32:27.633Z,9.80
2022-12-23T03:36:32.765Z,9.80
2022-12-23T03:40:44.867Z,9.70
2022-12-23T03:45:19.114Z,9.80
2022-12-23T03:49:23.636Z,9.80
2022-12-23T03:53:35.875Z,9.70
2022-12-23T03:57:44.769Z,9.70
2022-12-23T04:02:00.196Z,9.70
2022-12-23T04:06:02.368Z,9.70
2022-12-23T04:10:04.570Z,9.70
2022-12-23T04:14:07.107Z,9.70
2022-12-23T04:18:09.557Z,9.70
2022-12-23T04:22:11.832Z,9.70
2022-12-23T04:26:42.632Z,9.70
2022-12-23T04:30:44.336Z,9.70
2022-12-23T04:34:45.946Z,9.80
2022-12-23T04:38:47.501Z,9.80
2022-12-23T04:42:49.130Z,9.80
2022-12-23T04:46:50.707Z,9.70
2022-12-23T04:50:52.353Z,9.70
2022-12-23T04:54:53.925Z,9.80
2022-12-23T04:58:55.528Z,9.80
2022-12-23T05:02:58.146Z,9.60
2022-12-23T05:06:59.762Z,9.70
2022-12-23T05:11:01.470Z,9.70
2022-12-23T05:15:03.079Z,9.60
2022-12-23T05:19:04.659Z,9.60
2022-12-23T05:23:06.319Z,9.60
2022-12-23T05:27:07.929Z,9.50
2022-12-23T05:31:10.476Z,9.50
2022-12-23T05:35:12.111Z,9.60
2022-12-23T05:39:13.717Z,9.50
2022-12-23T05:43:15.534Z,9.50
2022-12-23T05:47:17.468Z,9.60
2022-12-23T05:51:19.073Z,9.50
2022-12-23T05:55:20.659Z,9.50
2022-12-23T05:59:23.527Z,9.50
2022-12-23T06:03:28.238Z,9.50
2022-12-23T06:07:30.089Z,9.50
2022-12-23T06:11:31.763Z,9.50
2022-12-23T06:15:33.461Z,9.50
2022-12-23T06:19:35.039Z,9.50
2022-12-23T06:23:36.827Z,9.50
2022-12-23T06:27:38.443Z,9.50
2022-12-23T06:31:40.067Z,9.50
2022-12-23T06:35:42.891Z,9.40
2022-12-23T06:39:44.487Z,9.40
2022-12-23T06:43:49.811Z,9.40
2022-12-23T06:47:54.269Z,9.40
2022-12-23T06:51:55.975Z,9.40
2022-12-23T06:56:01.273Z,9.40
2022-12-23T07:00:05.285Z,9.50
2022-12-23T07:04:06.875Z,9.40
2022-12-23T07:08:08.437Z,9.40
2022-12-23T07:12:10.018Z,9.30
2022-12-23T07:16:11.662Z,9.20
2022-12-23T07:20:14.260Z,9.20
2022-12-23T07:24:15.940Z,9.20
2022-12-23T07:28:17.548Z,9.20
2022-12-23T07:32:19.296Z,9.20
2022-12-23T07:36:20.928Z,9.30
2022-12-23T07:40:22.983Z,9.20
2022-12-23T07:44:24.594Z,9.20
2022-12-23T07:48:26.228Z,9.30
2022-12-23T07:52:28.583Z,9.20
2022-12-23T07:56:30.167Z,9.30
2022-12-23T08:00:31.725Z,9.30
2022-12-23T08:04:33.411Z,9.30
2022-12-23T08:08:35.492Z,9.30
2022-12-23T08:12:37.219Z,9.30
2022-12-23T08:16:43.594Z,9.30
2022-12-23T08:20:53.361Z,9.40
2022-12-23T08:24:54.980Z,9.40
2022-12-23T08:28:56.617Z,9.40
2022-12-23T08:32:58.213Z,9.40
2022-12-23T08:36:59.889Z,9.40
2022-12-23T08:41:02.061Z,9.50
2022-12-23T08:45:03.890Z,9.50
2022-12-23T08:49:06.374Z,9.50
2022-12-23T08:53:08.400Z,9.60
2022-12-23T08:57:09.971Z,9.60
2022-12-23T09:01:12.534Z,9.60
2022-12-23T09:05:14.277Z,9.50
2022-12-23T09:09:16.372Z,9.60
2022-12-23T09:13:26.188Z,9.60
2022-12-23T09:17:32.818Z,9.60
2022-12-23T09:21:34.661Z,9.40
2022-12-23T09:25:36.925Z,9.50
2022-12-23T09:29:38.517Z,9.50
2022-12-23T09:33:40.264Z,9.60
2022-12-23T09:37:41.824Z,9.60
2022-12-23T09:41:52.057Z,9.60
2022-12-23T09:45:53.767Z,9.60
2022-12-23T09:49:58.334Z,9.60
2022-12-23T09:54:02.980Z,9.60
2022-12-23T09:58:24.828Z,9.60
2022-12-23T10:02:40.449Z,9.60
2022-12-23T10:06:45.518Z,9.70
2022-12-23T10:10:48.350Z,9.70
2022-12-23T10:14:51.006Z,9.70
2022-12-23T10:18:52.755Z,9.60
2022-12-23T10:22:55.328Z,9.60
2022-12-23T10:26:59.901Z,9.60
2022-12-23T10:31:38.784Z,9.60
2022-12-23T10:35:43.665Z,9.50
2022-12-23T10:40:11.111Z,9.50
2022-12-23T10:44:51.447Z,9.60
2022-12-23T10:48:53.162Z,9.60
2022-12-23T10:52:56.504Z,9.60
2022-12-23T10:57:04.194Z,9.60
2022-12-23T11:01:16.163Z,9.60
2022-12-23T11:05:39.665Z,9.60
2022-12-23T11:09:49.175Z,9.50
2022-12-23T11:13:53.544Z,9.60
2022-12-23T11:18:10.763Z,9.60
2022-12-23T11:22:23.691Z,9.60
2022-12-23T11:26:25.405Z,9.60
2022-12-23T11:30:28.189Z,9.60
2022-12-23T11:34:33.098Z,9.60
2022-12-23T11:38:38.124Z,9.60
2022-12-23T11:42:43.186Z,9.60
2022-12-23T11:46:47.425Z,9.60
2022-12-23T11:50:57.737Z,9.60
2022-12-23T11:55:02.845Z,9.70
2022-12-23T11:59:08.717Z,9.60
2022-12-23T12:03:24.385Z,9.70
2022-12-23T12:07:26.709Z,9.60
2022-12-23T12:11:31.464Z,9.60
2022-12-23T12:16:02.848Z,9.60
2022-12-23T12:20:24.493Z,9.70
2022-12-23T12:25:08.247Z,9.70
2022-12-23T12:29:43.555Z,9.70
2022-12-23T12:34:02.874Z,9.70
2022-12-23T12:38:12.975Z,9.80
2022-12-23T12:42:17.115Z,9.90
2022-12-23T12:46:18.811Z,9.90
2022-12-23T12:50:23.577Z,9.90
2022-12-23T12:54:41.856Z,9.90
2022-12-23T12:58:44.537Z,10.00
2022-12-23T13:03:12.166Z,10.00
2022-12-23T13:07:13.769Z,10.00
2022-12-23T13:11:21.078Z,10.00
2022-12-23T13:15:46.661Z,10.00
2022-12-23T13:19:56.093Z,10.10
2022-12-23T13:24:13.201Z,10.20
2022-12-23T13:28:41.650Z,10.30
2022-12-23T13:32:52.815Z,10.30
2022-12-23T13:37:13.528Z,10.40
2022-12-23T13:46:43.623Z,10.40
2022-12-23T13:51:04.785Z,10.50
2022-12-23T13:55:41.603Z,10.60
2022-12-23T13:59:44.710Z,10.80
2022-12-23T14:03:54.348Z,11.00
2022-12-23T14:08:02.493Z,11.10
2022-12-23T14:12:24.613Z,11.20
2022-12-23T14:16:55.488Z,11.20
2022-12-23T14:21:36.269Z,11.30
2022-12-23T14:25:55.049Z,11.30
2022-12-23T14:30:12.814Z,11.40
2022-12-23T14:34:20.062Z,11.40
2022-12-23T14:38:26.744Z,11.50
2022-12-23T14:42:37.452Z,11.40
2022-12-23T14:46:39.193Z,11.50
2022-12-23T14:50:42.120Z,11.60
2022-12-23T14:55:00.073Z,11.60
2022-12-23T14:59:24.253Z,11.60
2022-12-23T15:03:28.172Z,11.70
2022-12-23T15:07:34.861Z,11.70
2022-12-23T15:11:37.346Z,11.80
2022-12-23T15:15:53.505Z,11.90
2022-12-23T15:20:10.744Z,11.90
2022-12-23T15:24:20.240Z,12.00
2022-12-23T15:28:23.505Z,12.00
2022-12-23T15:32:26.197Z,12.10
2022-12-23T15:36:30.784Z,12.20
2022-12-23T15:40:34.706Z,12.30
2022-12-23T15:44:38.146Z,12.40
2022-12-23T15:48:40.437Z,12.30
2022-12-23T15:52:44.649Z,12.10
2022-12-23T15:56:48.024Z,12.20
2022-12-23T16:00:54.983Z,12.20
2022-12-23T16:04:59.289Z,12.20
2022-12-23T16:09:05.817Z,12.20
2022-12-23T16:13:16.809Z,12.20
2022-12-23T16:17:23.778Z,12.10
2022-12-23T16:21:29.576Z,12.20
2022-12-23T16:25:32.437Z,12.40
2022-12-23T16:29:34.181Z,12.30
2022-12-23T16:33:38.067Z,12.20
2022-12-23T16:37:39.699Z,12.10
2022-12-23T16:41:41.636Z,12.20
2022-12-23T16:45:44.249Z,12.00
2022-12-23T16:49:46.702Z,12.10
2022-12-23T16:53:48.876Z,12.00
2022-12-23T16:57:50.673Z,11.90
2022-12-23T17:01:54.524Z,11.90
2022-12-23T17:05:59.953Z,11.80
2022-12-23T17:10:02.572Z,11.70
2022-12-23T17:14:09.251Z,11.70
2022-12-23T17:18:16.523Z,11.60
2022-12-23T17:22:18.207Z,11.50
2022-12-23T17:26:19.959Z,11.60
2022-12-23T17:30:23.122Z,11.50
2022-12-23T17:34:24.821Z,11.50
2022-12-23T17:38:28.956Z,11.40
2022-12-23T17:42:30.635Z,11.40
2022-12-23T17:46:32.288Z,11.50
2022-12-23T17:50:34.602Z,11.50
2022-12-23T17:54:36.204Z,11.40
2022-12-23T17:58:37.764Z,11.40
2022-12-23T18:02:39.680Z,11.50
2022-12-23T18:06:41.281Z,11.40
2022-12-23T18:10:43.681Z,11.50
2022-12-23T18:14:45.383Z,11.50
2022-12-23T18:18:47.374Z,11.60
2022-12-23T18:22:50.324Z,11.50
2022-12-23T18:26:51.987Z,11.50
2022-12-23T18:30:55.496Z,11.50
2022-12-23T18:34:57.185Z,11.50
2022-12-23T18:38:58.967Z,11.40
2022-12-23T18:43:00.704Z,11.40
2022-12-23T18:47:02.441Z,11.40
2022-12-23T18:51:04.409Z,11.30
2022-12-23T18:55:06.442Z,11.40
2022-12-23T18:59:15.580Z,11.40
2022-12-23T19:03:27.470Z,11.40
2022-12-23T19:07:29.064Z,11.50
2022-12-23T19:11:31.627Z,11.50
2022-12-23T19:15:33.276Z,11.50
2022-12-23T19:19:37.757Z,11.40
2022-12-23T19:23:40.776Z,11.40
2022-12-23T19:27:42.822Z,11.40
2022-12-23T19:31:44.410Z,11.40
2022-12-23T19:35:46.036Z,11.30
2022-12-23T19:39:47.763Z,11.30
2022-12-23T19:43:49.405Z,11.20
2022-12-23T19:47:50.949Z,11.20
2022-12-23T19:51:52.634Z,11.20
2022-12-23T19:56:01.783Z,11.10
2022-12-23T20:00:04.217Z,11.00
2022-12-23T20:04:08.535Z,10.90
2022-12-23T20:08:10.261Z,10.80
2022-12-23T20:12:11.895Z,10.80
2022-12-23T20:16:13.748Z,10.80
2022-12-23T20:20:15.787Z,10.80
2022-12-23T20:24:21.280Z,10.80
2022-12-23T20:28:25.962Z,10.80
2022-12-23T20:32:30.695Z,10.70
2022-12-23T20:36:33.415Z,10.70
2022-12-23T20:40:35.117Z,10.70
2022-12-23T20:44:38.271Z,10.70
2022-12-23T20:48:40.188Z,10.70
2022-12-23T20:52:42.068Z,10.80
2022-12-23T20:56:43.657Z,10.80
2022-12-23T21:00:45.278Z,10.80
2022-12-23T21:04:49.325Z,10.80
2022-12-23T21:08:57.510Z,10.90
2022-12-23T21:12:59.196Z,10.90
2022-12-23T21:17:00.827Z,10.90
2022-12-23T21:21:03.816Z,10.70
2022-12-23T21:25:05.687Z,10.70
2022-12-23T21:29:08.204Z,10.80
2022-12-23T21:33:09.920Z,10.80
2022-12-23T21:37:11.525Z,10.80
2022-12-23T21:41:17.659Z,10.70
2022-12-23T21:45:19.542Z,10.70
2022-12-23T21:49:21.361Z,10.60
2022-12-23T21:53:23.042Z,10.60
2022-12-23T21:57:24.683Z,10.70
2022-12-23T22:01:26.782Z,10.70
2022-12-23T22:05:28.469Z,10.70
2022-12-23T22:09:30.708Z,10.60
2022-12-23T22:13:32.270Z,10.60
2022-12-23T22:17:33.908Z,10.50
2022-12-23T22:21:36.562Z,10.50
2022-12-23T22:25:38.208Z,10.50
2022-12-23T22:29:41.293Z,10.40
2022-12-23T22:33:42.939Z,10.40
2022-12-23T22:37:44.580Z,10.40
2022-12-23T22:41:46.312Z,10.50
2022-12-23T22:45:54.670Z,10.70
2022-12-23T22:49:56.447Z,10.60
2022-12-23T22:53:58.388Z,10.50
2022-12-23T22:58:00.037Z,10.50
2022-12-23T23:02:01.649Z,10.40
2022-12-23T23:06:05.107Z,10.50
2022-12-23T23:10:07.367Z,10.50
2022-12-23T23:14:09.064Z,10.40
2022-12-23T23:18:10.727Z,10.40
2022-12-23T23:22:12.427Z,10.40
2022-12-23T23:26:14.389Z,10.40
2022-12-23T23:30:16.017Z,10.30
2022-12-23T23:34:17.665Z,10.30
2022-12-23T23:38:19.301Z,10.40
2022-12-23T23:42:20.962Z,10.20
2022-12-23T23:46:22.723Z,10.20
2022-12-23T23:50:24.423Z,10.10
2022-12-23T23:54:26.057Z,10.20
2022-12-23T23:58:27.705Z,10.10
